»·PEaware :: N1399 KCRQ-KSNA

N1399 :: KCRQ-KSNA

FLIGHT INFORMATION

Flight Status: Arrived
Operator: Privately registered:
United States
More flights under this callsign
Pilot: David C. (16084)
Aircraft: CESSNA 172 SKYHAWK
(C172)
More flights by this aircraft type
Origin: KCRQ McClellan-Palomar
United States
Destination: KSNA John Wayne-Orange Co
United States
More flights between these airports :: More routes between these airports
Route: OCN V23 SLI
File this flight plan on PilotEdge
Remarks: SANP3
Altitude:
(Current/Filed)
6,000ft
Speed:
(Current/Filed)
121kts
Departed: 05-Aug-18 08:58 AM
Arrived: 05-Aug-18 10:23 AM
Distance/Time
Traveled:
44nm/1:25
Distance/Time
To Go:
Arrived

Flight Plot

Page will automatically refresh every two minutes.


Map Options




Map Legend


Flown Route
Filed Route
Departure Airport
Arrival Airport
Navaid (VOR, NDB)
Fix

Horizontal Profiles

Position Reports

Time Latitude Longitude Heading Altitude Ground
Speed
05-Aug-18 08:32 33.127534 -117.274832 254 335ft 0kts
05-Aug-18 08:33 33.127534 -117.274832 254 335ft 0kts
05-Aug-18 08:34 33.127534 -117.274832 254 335ft 0kts
05-Aug-18 08:35 33.127534 -117.274832 254 335ft 0kts
05-Aug-18 08:36 33.127534 -117.274832 254 335ft 0kts
05-Aug-18 08:37 33.127534 -117.274832 254 335ft 0kts
05-Aug-18 08:38 33.127534 -117.274832 254 335ft 0kts
05-Aug-18 08:39 33.127534 -117.274832 254 335ft 0kts
05-Aug-18 08:40 33.127534 -117.274832 254 335ft 0kts
05-Aug-18 08:41 33.127534 -117.274832 254 335ft 0kts
05-Aug-18 08:42 33.127534 -117.274832 254 335ft 0kts
05-Aug-18 08:43 33.127534 -117.274832 254 335ft 0kts
05-Aug-18 08:44 33.127534 -117.274832 254 335ft 0kts
05-Aug-18 08:45 33.127527 -117.274887 268 335ft 2kts
05-Aug-18 08:46 33.127613 -117.275050 322 335ft 0kts
05-Aug-18 08:47 33.127613 -117.275050 322 335ft 0kts
05-Aug-18 08:48 33.127613 -117.275050 322 335ft 0kts
05-Aug-18 08:49 33.127613 -117.275050 322 335ft 0kts
05-Aug-18 08:50 33.127613 -117.275050 322 335ft 0kts
05-Aug-18 08:51 33.127613 -117.275050 322 335ft 0kts
05-Aug-18 08:52 33.127613 -117.275050 322 335ft 0kts
05-Aug-18 08:53 33.127613 -117.275050 322 335ft 0kts
05-Aug-18 08:54 33.128252 -117.274920 73 335ft 8kts
05-Aug-18 08:55 33.128356 -117.272584 321 335ft 0kts
05-Aug-18 08:56 33.128356 -117.272584 321 335ft 0kts
05-Aug-18 08:57 33.128912 -117.272809 337 335ft 6kts
05-Aug-18 08:58 33.129172 -117.274292 261 335ft 37kts
05-Aug-18 08:59 33.127546 -117.295854 263 833ft 73kts
05-Aug-18 09:00 33.125542 -117.321185 263 1433ft 79kts
05-Aug-18 09:01 33.123596 -117.346891 264 2071ft 73kts
05-Aug-18 09:02 33.121627 -117.371694 264 2576ft 82kts
05-Aug-18 09:03 33.119371 -117.399658 270 2983ft 96kts
05-Aug-18 09:04 33.140196 -117.416291 0 3399ft 100kts
05-Aug-18 09:05 33.162672 -117.415255 357 4051ft 76kts
05-Aug-18 09:06 33.183082 -117.415047 355 4532ft 74kts
05-Aug-18 09:07 33.203945 -117.415069 355 4939ft 80kts
05-Aug-18 09:08 33.223119 -117.415113 354 5346ft 76kts
05-Aug-18 09:09 33.239304 -117.416414 319 5745ft 58kts
05-Aug-18 09:10 33.246481 -117.423595 344 2365ft 56kts
05-Aug-18 09:35 33.127543 -117.274791 258 335ft 0kts
05-Aug-18 09:36 33.127543 -117.274791 258 335ft 0kts
05-Aug-18 09:37 33.127543 -117.274791 258 335ft 0kts
05-Aug-18 09:38 33.127538 -117.274813 255 335ft 0kts
05-Aug-18 09:39 33.127538 -117.274813 255 335ft 0kts
05-Aug-18 09:40 33.127538 -117.274813 255 335ft 0kts
05-Aug-18 09:41 33.127538 -117.274813 255 335ft 0kts
05-Aug-18 09:42 33.127538 -117.274813 255 335ft 0kts
05-Aug-18 09:43 33.127538 -117.274813 255 335ft 0kts
05-Aug-18 09:44 33.127538 -117.274813 255 335ft 0kts
05-Aug-18 09:45 33.127538 -117.274813 255 335ft 0kts
05-Aug-18 09:46 33.127538 -117.274813 255 335ft 0kts
05-Aug-18 09:47 33.127538 -117.274813 255 335ft 0kts
05-Aug-18 09:48 33.127538 -117.274813 255 335ft 0kts
05-Aug-18 09:49 33.127531 -117.274897 269 335ft 3kts
05-Aug-18 09:50 33.128553 -117.273045 78 335ft 14kts
05-Aug-18 09:51 33.128661 -117.272791 1 335ft 0kts
05-Aug-18 09:52 33.128167 -117.281026 261 431ft 68kts
05-Aug-18 09:53 33.126427 -117.304672 264 1038ft 75kts
05-Aug-18 09:54 33.124682 -117.330007 264 1632ft 79kts
05-Aug-18 09:55 33.122941 -117.355745 264 2225ft 77kts
05-Aug-18 09:56 33.125559 -117.378627 328 2789ft 73kts
05-Aug-18 09:57 33.143743 -117.385038 344 3257ft 76kts
05-Aug-18 09:58 33.162977 -117.391193 344 3724ft 77kts
05-Aug-18 09:59 33.182440 -117.397487 343 4196ft 75kts
05-Aug-18 10:00 33.201570 -117.403729 343 4677ft 71kts
05-Aug-18 10:01 33.222228 -117.410464 343 5016ft 84kts
05-Aug-18 10:02 33.244567 -117.421459 318 5320ft 91kts
05-Aug-18 10:03 33.261489 -117.440414 309 5763ft 81kts
05-Aug-18 10:04 33.278621 -117.460228 311 5944ft 100kts
05-Aug-18 10:05 33.300654 -117.485616 311 5944ft 117kts
05-Aug-18 10:06 33.323571 -117.512974 311 5947ft 121kts
05-Aug-18 10:07 33.346651 -117.540054 312 5950ft 124kts
05-Aug-18 10:08 33.376202 -117.559717 334 5632ft 130kts
05-Aug-18 10:09 33.408291 -117.575940 328 5142ft 129kts
05-Aug-18 10:10 33.437531 -117.597375 325 4658ft 129kts
05-Aug-18 10:11 33.465750 -117.618553 325 4187ft 127kts
05-Aug-18 10:12 33.493136 -117.639617 325 4007ft 120kts
05-Aug-18 10:13 33.518635 -117.659801 324 4005ft 121kts
05-Aug-18 10:14 33.546326 -117.682261 324 4002ft 121kts
05-Aug-18 10:15 33.573729 -117.704842 325 3920ft 121kts
05-Aug-18 10:16 33.600511 -117.727064 325 3426ft 120kts
05-Aug-18 10:17 33.627242 -117.749235 325 3057ft 116kts
05-Aug-18 10:18 33.653411 -117.770837 325 2684ft 117kts
05-Aug-18 10:19 33.679500 -117.792225 325 2196ft 116kts
05-Aug-18 10:20 33.705826 -117.813573 327 1711ft 113kts
05-Aug-18 10:21 33.712186 -117.841392 242 933ft 84kts
05-Aug-18 10:22 33.695296 -117.856436 206 393ft 77kts
05-Aug-18 10:23 33.679032 -117.866707 207 62ft 60kts
05-Aug-18 10:24 33.674615 -117.868505 155 60ft 0kts
05-Aug-18 10:25 33.674615 -117.868505 155 60ft 0kts
05-Aug-18 10:26 33.674605 -117.868500 152 60ft 0kts
05-Aug-18 10:27 33.673594 -117.867128 158 60ft 14kts
05-Aug-18 10:28 33.671887 -117.867058 204 60ft 0kts
05-Aug-18 10:29 33.671887 -117.867058 204 60ft 0kts

Navigation Log

Ident Type
Flight plan parsing failed, navigation log unavailable